createdAt,value
2022-11-08T00:00:21.509Z,100.00
2022-11-08T00:02:49.199Z,100.00
2022-11-08T00:05:34.577Z,100.00
2022-11-08T00:08:21.714Z,100.00
2022-11-08T00:11:07.081Z,100.00
2022-11-08T00:13:52.232Z,100.00
2022-11-08T00:16:21.124Z,100.00
2022-11-08T00:18:48.677Z,100.00
2022-11-08T00:21:16.239Z,100.00
2022-11-08T00:23:44.504Z,100.00
2022-11-08T00:26:12.069Z,100.00
2022-11-08T00:28:39.628Z,100.00
2022-11-08T00:31:07.772Z,100.00
2022-11-08T00:33:37.361Z,100.00
2022-11-08T00:36:05.569Z,100.00
2022-11-08T00:38:33.117Z,100.00
2022-11-08T00:41:00.709Z,100.00
2022-11-08T00:43:28.275Z,100.00
2022-11-08T00:45:55.804Z,100.00
2022-11-08T00:48:23.335Z,100.00
2022-11-08T00:50:52.248Z,100.00
2022-11-08T00:53:19.850Z,100.00
2022-11-08T00:55:47.426Z,100.00
2022-11-08T00:58:15.185Z,100.00
2022-11-08T01:00:43.024Z,100.00
2022-11-08T01:03:19.664Z,100.00
2022-11-08T01:05:47.663Z,100.00
2022-11-08T01:08:17.873Z,100.00
2022-11-08T01:10:47.645Z,100.00
2022-11-08T01:13:16.269Z,100.00
2022-11-08T01:15:45.221Z,100.00
2022-11-08T01:18:14.743Z,100.00
2022-11-08T01:20:43.531Z,100.00
2022-11-08T01:23:12.022Z,100.00
2022-11-08T01:25:42.493Z,100.00
2022-11-08T01:28:10.860Z,100.00
2022-11-08T01:30:39.250Z,100.00
2022-11-08T01:33:07.515Z,100.00
2022-11-08T01:35:36.396Z,100.00
2022-11-08T01:38:05.824Z,100.00
2022-11-08T01:40:34.257Z,100.00
2022-11-08T01:43:32.329Z,100.00
2022-11-08T01:46:36.261Z,100.00
2022-11-08T01:49:39.254Z,100.00
2022-11-08T01:52:24.445Z,100.00
2022-11-08T01:55:01.424Z,100.00
2022-11-08T01:57:34.351Z,100.00
2022-11-08T02:00:07.297Z,100.00
2022-11-08T02:02:36.553Z,100.00
2022-11-08T02:05:07.180Z,100.00
2022-11-08T02:07:35.733Z,100.00
2022-11-08T02:10:04.491Z,100.00
2022-11-08T02:12:32.063Z,100.00
2022-11-08T02:15:00.255Z,100.00
2022-11-08T02:17:29.148Z,100.00
2022-11-08T02:19:56.728Z,100.00
2022-11-08T02:22:30.024Z,100.00
2022-11-08T02:25:00.237Z,100.00
2022-11-08T02:27:28.216Z,100.00
2022-11-08T02:29:57.419Z,100.00
2022-11-08T02:32:25.892Z,100.00
2022-11-08T02:34:57.269Z,100.00
2022-11-08T02:37:26.456Z,100.00
2022-11-08T02:39:53.992Z,100.00
2022-11-08T02:42:22.884Z,100.00
2022-11-08T02:44:50.447Z,100.00
2022-11-08T02:47:18.005Z,100.00
2022-11-08T02:49:45.610Z,100.00
2022-11-08T02:52:13.142Z,100.00
2022-11-08T02:54:40.683Z,100.00
2022-11-08T02:57:08.220Z,100.00
2022-11-08T02:59:37.117Z,100.00
2022-11-08T03:02:04.813Z,100.00
2022-11-08T03:04:32.454Z,100.00
2022-11-08T03:07:00.046Z,100.00
2022-11-08T03:09:27.994Z,100.00
2022-11-08T03:11:55.531Z,100.00
2022-11-08T03:14:23.489Z,100.00
2022-11-08T03:16:52.376Z,100.00
2022-11-08T03:19:19.906Z,100.00
2022-11-08T03:21:47.469Z,100.00
2022-11-08T03:24:15.041Z,100.00
2022-11-08T03:26:42.580Z,100.00
2022-11-08T03:29:10.360Z,100.00
2022-11-08T03:31:37.891Z,100.00
2022-11-08T03:34:06.794Z,100.00
2022-11-08T03:36:34.337Z,100.00
2022-11-08T03:39:01.896Z,100.00
2022-11-08T03:41:29.441Z,100.00
2022-11-08T03:43:57.024Z,100.00
2022-11-08T03:46:24.588Z,100.00
2022-11-08T03:48:52.121Z,100.00
2022-11-08T03:51:21.000Z,100.00
2022-11-08T03:53:48.532Z,100.00
2022-11-08T03:56:16.064Z,100.00
2022-11-08T03:58:43.612Z,100.00
2022-11-08T04:01:11.341Z,100.00
2022-11-08T04:03:38.947Z,100.00
2022-11-08T04:06:07.040Z,100.00
2022-11-08T04:08:36.152Z,100.00
2022-11-08T04:11:17.613Z,100.00
2022-11-08T04:14:02.693Z,100.00
2022-11-08T04:16:32.071Z,100.00
2022-11-08T04:19:17.707Z,100.00
2022-11-08T04:21:46.444Z,100.00
2022-11-08T04:24:15.680Z,100.00
2022-11-08T04:26:43.316Z,100.00
2022-11-08T04:29:11.588Z,100.00
2022-11-08T04:31:39.134Z,100.00
2022-11-08T04:34:07.015Z,100.00
2022-11-08T04:36:34.939Z,100.00
2022-11-08T04:39:02.570Z,100.00
2022-11-08T04:41:31.481Z,100.00
2022-11-08T04:43:59.553Z,100.00
2022-11-08T04:46:28.708Z,100.00
2022-11-08T04:48:57.989Z,100.00
2022-11-08T04:51:27.729Z,100.00
2022-11-08T04:53:56.478Z,100.00
2022-11-08T04:56:24.953Z,100.00
2022-11-08T04:58:56.081Z,100.00
2022-11-08T05:01:25.880Z,100.00
2022-11-08T05:03:54.741Z,100.00
2022-11-08T05:06:24.756Z,100.00
2022-11-08T05:08:53.033Z,100.00
2022-11-08T05:11:22.875Z,100.00
2022-11-08T05:13:52.069Z,100.00
2022-11-08T05:16:22.764Z,100.00
2022-11-08T05:18:50.659Z,100.00
2022-11-08T05:21:38.063Z,100.00
2022-11-08T05:24:08.316Z,100.00
2022-11-08T05:26:37.305Z,100.00
2022-11-08T05:29:05.481Z,100.00
2022-11-08T05:31:34.409Z,100.00
2022-11-08T05:34:02.048Z,100.00
2022-11-08T05:36:29.901Z,100.00
2022-11-08T05:38:57.739Z,100.00
2022-11-08T05:41:26.687Z,100.00
2022-11-08T05:43:55.967Z,100.00
2022-11-08T05:46:24.587Z,100.00
2022-11-08T05:48:54.132Z,100.00
2022-11-08T05:51:21.781Z,100.00
2022-11-08T05:53:49.561Z,100.00
2022-11-08T05:56:17.572Z,100.00
2022-11-08T05:58:45.476Z,100.00
2022-11-08T06:01:15.032Z,100.00
2022-11-08T06:03:42.907Z,100.00
2022-11-08T06:06:13.181Z,100.00
2022-11-08T06:08:44.989Z,100.00
2022-11-08T06:11:17.826Z,100.00
2022-11-08T06:13:45.509Z,100.00
2022-11-08T06:16:15.178Z,100.00
2022-11-08T06:18:43.309Z,100.00
2022-11-08T06:21:14.489Z,100.00
2022-11-08T06:23:42.083Z,100.00
2022-11-08T06:26:10.247Z,100.00
2022-11-08T06:28:38.350Z,100.00
2022-11-08T06:31:06.636Z,100.00
2022-11-08T06:33:34.220Z,100.00
2022-11-08T06:36:02.053Z,100.00
2022-11-08T06:38:31.081Z,100.00
2022-11-08T06:41:00.576Z,100.00
2022-11-08T06:43:28.551Z,100.00
2022-11-08T06:46:00.291Z,100.00
2022-11-08T06:48:32.378Z,100.00
2022-11-08T06:51:03.011Z,100.00
2022-11-08T06:53:32.513Z,100.00
2022-11-08T06:56:00.231Z,100.00
2022-11-08T06:58:27.782Z,100.00
2022-11-08T07:00:55.392Z,100.00
2022-11-08T07:03:22.952Z,100.00
2022-11-08T07:05:50.476Z,100.00
2022-11-08T07:08:23.344Z,100.00
2022-11-08T07:10:53.055Z,100.00
2022-11-08T07:13:21.405Z,100.00
2022-11-08T07:15:49.321Z,100.00
2022-11-08T07:18:19.454Z,100.00
2022-11-08T07:20:48.004Z,100.00
2022-11-08T07:23:15.752Z,100.00
2022-11-08T07:25:43.317Z,100.00
2022-11-08T07:28:15.953Z,100.00
2022-11-08T07:30:43.616Z,100.00
2022-11-08T07:33:11.160Z,100.00
2022-11-08T07:35:38.784Z,100.00
2022-11-08T07:38:06.625Z,100.00
2022-11-08T07:40:34.912Z,100.00
2022-11-08T07:43:11.727Z,100.00
2022-11-08T07:45:44.481Z,100.00
2022-11-08T07:48:13.941Z,100.00
2022-11-08T07:50:42.756Z,100.00
2022-11-08T07:53:11.228Z,100.00
2022-11-08T07:55:38.958Z,100.00
2022-11-08T07:58:07.019Z,100.00
2022-11-08T08:00:36.659Z,100.00
2022-11-08T08:03:07.409Z,100.00
2022-11-08T08:05:36.949Z,100.00
2022-11-08T08:08:04.944Z,100.00
2022-11-08T08:10:33.394Z,100.00
2022-11-08T08:13:01.647Z,100.00
2022-11-08T08:15:29.220Z,100.00
2022-11-08T08:17:56.816Z,100.00
2022-11-08T08:20:25.750Z,100.00
2022-11-08T08:22:53.333Z,100.00
2022-11-08T08:25:21.346Z,100.00
2022-11-08T08:27:49.425Z,100.00
2022-11-08T08:30:20.254Z,100.00
2022-11-08T08:33:02.166Z,100.00
2022-11-08T08:35:38.199Z,100.00
2022-11-08T08:38:07.425Z,100.00
2022-11-08T08:40:35.532Z,100.00
2022-11-08T08:43:04.994Z,100.00
2022-11-08T08:45:33.309Z,100.00
2022-11-08T08:48:01.452Z,100.00
2022-11-08T08:50:31.174Z,100.00
2022-11-08T08:53:00.268Z,100.00
2022-11-08T08:55:28.453Z,100.00
2022-11-08T08:57:56.328Z,100.00
2022-11-08T09:03:13.365Z,100.00
2022-11-08T09:05:43.921Z,100.00
2022-11-08T09:08:14.159Z,100.00
2022-11-08T09:10:42.233Z,100.00
2022-11-08T09:13:09.895Z,100.00
2022-11-08T09:15:39.229Z,100.00
2022-11-08T09:18:07.350Z,100.00
2022-11-08T09:20:35.014Z,100.00
2022-11-08T09:23:03.075Z,100.00
2022-11-08T09:25:32.466Z,100.00
2022-11-08T09:28:00.129Z,100.00
2022-11-08T09:30:28.000Z,100.00
2022-11-08T09:33:03.178Z,100.00
2022-11-08T09:35:31.499Z,100.00
2022-11-08T09:37:59.441Z,100.00
2022-11-08T09:40:38.175Z,100.00
2022-11-08T09:43:25.917Z,100.00
2022-11-08T09:45:55.977Z,100.00
2022-11-08T09:48:29.049Z,100.00
2022-11-08T09:51:00.107Z,100.00
2022-11-08T09:53:35.683Z,100.00
2022-11-08T09:56:12.506Z,100.00
2022-11-08T09:58:46.693Z,100.00
2022-11-08T10:01:15.053Z,100.00
2022-11-08T10:03:48.149Z,100.00
2022-11-08T10:06:37.910Z,100.00
2022-11-08T10:09:21.093Z,100.00
2022-11-08T10:12:02.977Z,100.00
2022-11-08T10:14:52.569Z,100.00
2022-11-08T10:17:47.369Z,100.00
2022-11-08T10:20:25.268Z,100.00
2022-11-08T10:22:59.997Z,100.00
2022-11-08T10:25:34.572Z,100.00
2022-11-08T10:28:04.705Z,100.00
2022-11-08T10:30:35.502Z,100.00
2022-11-08T10:33:03.793Z,100.00
2022-11-08T10:35:39.154Z,100.00
2022-11-08T10:38:17.738Z,100.00
2022-11-08T10:40:51.598Z,100.00
2022-11-08T10:43:28.998Z,100.00
2022-11-08T10:45:56.602Z,100.00
2022-11-08T10:48:24.287Z,100.00
2022-11-08T10:50:53.409Z,100.00
2022-11-08T10:53:25.388Z,100.00
2022-11-08T10:55:59.532Z,100.00
2022-11-08T10:58:37.454Z,100.00
2022-11-08T11:01:08.540Z,100.00
2022-11-08T11:03:36.099Z,100.00
2022-11-08T11:06:05.453Z,100.00
2022-11-08T11:08:33.639Z,100.00
2022-11-08T11:11:23.443Z,100.00
2022-11-08T11:14:06.819Z,100.00
2022-11-08T11:16:34.750Z,100.00
2022-11-08T11:19:03.557Z,100.00
2022-11-08T11:21:36.653Z,100.00
2022-11-08T11:24:10.242Z,99.98
2022-11-08T11:26:42.736Z,99.99
2022-11-08T11:29:20.428Z,100.00
2022-11-08T11:31:50.741Z,98.49
2022-11-08T11:34:36.565Z,98.44
2022-11-08T11:37:13.477Z,98.24
2022-11-08T11:39:49.480Z,99.10
2022-11-08T11:42:44.441Z,99.83
2022-11-08T11:45:18.457Z,100.00
2022-11-08T11:47:47.943Z,99.58
2022-11-08T11:50:30.660Z,98.55
2022-11-08T11:53:00.130Z,98.38
2022-11-08T11:55:35.633Z,97.63
2022-11-08T11:58:17.561Z,97.24
2022-11-08T12:00:57.265Z,96.07
2022-11-08T12:03:44.949Z,96.65
2022-11-08T12:06:22.273Z,96.66
2022-11-08T12:09:05.809Z,95.85
2022-11-08T12:11:45.313Z,96.62
2022-11-08T12:14:33.666Z,97.43
2022-11-08T12:17:14.479Z,98.14
2022-11-08T12:20:07.978Z,99.03
2022-11-08T12:22:50.117Z,98.21
2022-11-08T12:25:24.177Z,98.64
2022-11-08T12:27:54.825Z,98.89
2022-11-08T12:30:27.844Z,98.17
2022-11-08T12:33:20.779Z,98.47
2022-11-08T12:36:01.950Z,98.32
2022-11-08T12:38:35.735Z,98.28
2022-11-08T12:41:13.291Z,99.17
2022-11-08T12:44:00.529Z,98.63
2022-11-08T12:46:32.681Z,98.36
2022-11-08T12:49:28.496Z,96.26
2022-11-08T12:52:09.544Z,96.23
2022-11-08T12:54:42.453Z,95.95
2022-11-08T12:57:13.151Z,96.90
2022-11-08T12:59:43.763Z,97.63
2022-11-08T13:02:19.480Z,97.18
2022-11-08T13:04:57.086Z,97.46
2022-11-08T13:07:43.457Z,98.09
2022-11-08T13:10:22.950Z,98.37
2022-11-08T13:13:06.635Z,98.03
2022-11-08T13:15:34.463Z,97.91
2022-11-08T13:18:23.813Z,98.84
2022-11-08T13:20:52.972Z,99.71
2022-11-08T13:23:28.570Z,100.00
2022-11-08T13:26:11.513Z,100.00
2022-11-08T13:28:42.435Z,100.00
2022-11-08T13:31:33.181Z,100.00
2022-11-08T13:34:35.722Z,100.00
2022-11-08T13:37:20.789Z,100.00
2022-11-08T13:40:02.352Z,100.00
2022-11-08T13:42:58.309Z,100.00
2022-11-08T13:45:32.132Z,100.00
2022-11-08T13:48:06.271Z,100.00
2022-11-08T13:50:47.050Z,100.00
2022-11-08T13:53:41.812Z,100.00
2022-11-08T13:56:34.936Z,100.00
2022-11-08T13:59:02.557Z,100.00
2022-11-08T14:01:58.277Z,100.00
2022-11-08T14:04:30.578Z,100.00
2022-11-08T14:07:06.178Z,100.00
2022-11-08T14:09:44.630Z,100.00
2022-11-08T14:12:16.925Z,100.00
2022-11-08T14:14:52.859Z,100.00
2022-11-08T14:17:44.927Z,100.00
2022-11-08T14:20:20.705Z,100.00
2022-11-08T14:22:50.429Z,100.00
2022-11-08T14:25:27.404Z,100.00
2022-11-08T14:27:54.971Z,100.00
2022-11-08T14:30:24.312Z,100.00
2022-11-08T14:33:07.896Z,100.00
2022-11-08T14:35:35.555Z,100.00
2022-11-08T14:38:03.133Z,100.00
2022-11-08T14:40:32.190Z,100.00
2022-11-08T14:42:59.784Z,100.00
2022-11-08T14:45:29.790Z,100.00
2022-11-08T14:48:03.977Z,100.00
2022-11-08T14:50:34.321Z,100.00
2022-11-08T14:53:21.442Z,100.00
2022-11-08T14:55:56.788Z,100.00
2022-11-08T14:58:29.026Z,100.00
2022-11-08T15:00:57.469Z,100.00
2022-11-08T15:03:29.908Z,100.00
2022-11-08T15:06:00.171Z,100.00
2022-11-08T15:08:30.918Z,100.00
2022-11-08T15:11:03.251Z,100.00
2022-11-08T15:13:34.630Z,100.00
2022-11-08T15:16:05.074Z,100.00
2022-11-08T15:18:36.490Z,100.00
2022-11-08T15:21:06.281Z,100.00
2022-11-08T15:23:42.280Z,100.00
2022-11-08T15:26:23.534Z,100.00
2022-11-08T15:29:03.386Z,100.00
2022-11-08T15:31:33.446Z,100.00
2022-11-08T15:34:01.036Z,100.00
2022-11-08T15:36:34.440Z,100.00
2022-11-08T15:39:03.835Z,100.00
2022-11-08T15:41:38.073Z,100.00
2022-11-08T15:44:14.288Z,100.00
2022-11-08T15:46:42.429Z,100.00
2022-11-08T15:49:21.648Z,100.00
2022-11-08T15:51:50.140Z,100.00
2022-11-08T15:54:18.687Z,100.00
2022-11-08T15:56:49.432Z,100.00
2022-11-08T15:59:21.475Z,100.00
2022-11-08T16:01:55.917Z,100.00
2022-11-08T16:04:23.947Z,100.00
2022-11-08T16:06:51.751Z,100.00
2022-11-08T16:09:19.445Z,100.00
2022-11-08T16:11:49.584Z,100.00
2022-11-08T16:14:20.421Z,100.00
2022-11-08T16:16:48.501Z,100.00
2022-11-08T16:19:19.758Z,100.00
2022-11-08T16:21:47.665Z,100.00
2022-11-08T16:24:15.727Z,100.00
2022-11-08T16:26:45.049Z,100.00
2022-11-08T16:29:21.001Z,100.00
2022-11-08T16:31:48.789Z,100.00
2022-11-08T16:34:16.479Z,100.00
2022-11-08T16:36:45.897Z,100.00
2022-11-08T16:39:16.564Z,100.00
2022-11-08T16:41:44.401Z,100.00
2022-11-08T16:44:12.690Z,100.00
2022-11-08T16:46:42.029Z,100.00
2022-11-08T16:49:20.219Z,100.00
2022-11-08T16:51:48.053Z,100.00
2022-11-08T16:54:19.152Z,100.00
2022-11-08T16:56:46.696Z,100.00
2022-11-08T16:59:14.840Z,100.00
2022-11-08T17:01:44.382Z,100.00
2022-11-08T17:04:12.144Z,100.00
2022-11-08T17:06:39.772Z,100.00
2022-11-08T17:09:07.374Z,100.00
2022-11-08T17:11:35.039Z,100.00
2022-11-08T17:14:03.048Z,100.00
2022-11-08T17:16:31.044Z,100.00
2022-11-08T17:18:59.964Z,100.00
2022-11-08T17:21:44.284Z,100.00
2022-11-08T17:24:17.028Z,100.00
2022-11-08T17:26:48.859Z,100.00
2022-11-08T17:29:16.440Z,100.00
2022-11-08T17:31:44.025Z,100.00
2022-11-08T17:34:13.062Z,100.00
2022-11-08T17:36:40.736Z,100.00
2022-11-08T17:39:08.356Z,100.00
2022-11-08T17:41:35.901Z,100.00
2022-11-08T17:44:03.461Z,100.00
2022-11-08T17:46:31.216Z,100.00
2022-11-08T17:48:58.756Z,100.00
2022-11-08T17:51:27.645Z,100.00
2022-11-08T17:53:55.214Z,100.00
2022-11-08T17:56:22.788Z,100.00
2022-11-08T17:58:50.340Z,100.00
2022-11-08T18:01:18.175Z,100.00
2022-11-08T18:03:45.877Z,100.00
2022-11-08T18:06:14.957Z,100.00
2022-11-08T18:08:43.944Z,100.00
2022-11-08T18:11:11.594Z,100.00
2022-11-08T18:13:39.235Z,100.00
2022-11-08T18:16:08.364Z,100.00
2022-11-08T18:18:35.977Z,100.00
2022-11-08T18:21:03.633Z,100.00
2022-11-08T18:23:31.217Z,100.00
2022-11-08T18:26:00.129Z,100.00
2022-11-08T18:28:27.988Z,100.00
2022-11-08T18:30:55.526Z,100.00
2022-11-08T18:33:23.184Z,100.00
2022-11-08T18:35:50.794Z,100.00
2022-11-08T18:38:18.328Z,100.00
2022-11-08T18:40:46.420Z,100.00
2022-11-08T18:43:15.438Z,100.00
2022-11-08T18:45:43.417Z,100.00
2022-11-08T18:48:10.944Z,100.00
2022-11-08T18:50:38.523Z,100.00
2022-11-08T18:53:07.027Z,100.00
2022-11-08T18:55:34.727Z,100.00
2022-11-08T18:58:03.368Z,100.00
2022-11-08T19:00:32.469Z,100.00
2022-11-08T19:03:01.861Z,100.00
2022-11-08T19:05:29.484Z,100.00
2022-11-08T19:07:57.061Z,100.00
2022-11-08T19:10:24.619Z,100.00
2022-11-08T19:12:52.189Z,100.00
2022-11-08T19:15:19.741Z,100.00
2022-11-08T19:17:53.618Z,100.00
2022-11-08T19:20:23.836Z,100.00
2022-11-08T19:22:53.812Z,100.00
2022-11-08T19:25:21.401Z,100.00
2022-11-08T19:27:49.027Z,100.00
2022-11-08T19:30:16.630Z,100.00
2022-11-08T19:32:44.169Z,100.00
2022-11-08T19:35:13.145Z,100.00
2022-11-08T19:37:40.873Z,100.00
2022-11-08T19:40:09.782Z,100.00
2022-11-08T19:42:37.363Z,100.00
2022-11-08T19:45:05.363Z,100.00
2022-11-08T19:47:34.584Z,100.00
2022-11-08T19:50:02.144Z,100.00
2022-11-08T19:52:31.034Z,100.00
2022-11-08T19:54:58.592Z,100.00
2022-11-08T19:57:27.241Z,100.00
2022-11-08T19:59:54.785Z,100.00
2022-11-08T20:02:22.343Z,100.00
2022-11-08T20:04:49.894Z,100.00
2022-11-08T20:07:17.541Z,100.00
2022-11-08T20:09:46.486Z,100.00
2022-11-08T20:12:15.074Z,100.00
2022-11-08T20:14:42.647Z,100.00
2022-11-08T20:17:10.223Z,100.00
2022-11-08T20:19:38.032Z,100.00
2022-11-08T20:22:05.874Z,100.00
2022-11-08T20:24:33.702Z,100.00
2022-11-08T20:27:02.742Z,100.00
2022-11-08T20:29:30.545Z,100.00
2022-11-08T20:31:58.123Z,100.00
2022-11-08T20:34:25.869Z,100.00
2022-11-08T20:36:53.490Z,100.00
2022-11-08T20:39:21.186Z,100.00
2022-11-08T20:41:48.895Z,100.00
2022-11-08T20:44:20.001Z,100.00
2022-11-08T20:46:47.590Z,100.00
2022-11-08T20:49:15.177Z,100.00
2022-11-08T20:51:42.773Z,100.00
2022-11-08T20:54:11.426Z,100.00
2022-11-08T20:56:39.496Z,100.00
2022-11-08T20:59:07.196Z,100.00
2022-11-08T21:01:36.762Z,100.00
2022-11-08T21:04:04.491Z,100.00
2022-11-08T21:06:36.050Z,100.00
2022-11-08T21:09:30.122Z,100.00
2022-11-08T21:11:52.681Z,100.00
2022-11-08T21:14:20.313Z,100.00
2022-11-08T21:19:36.730Z,100.00
2022-11-08T21:22:16.197Z,100.00
2022-11-08T21:24:44.613Z,100.00
2022-11-08T21:27:12.937Z,100.00
2022-11-08T21:29:40.574Z,100.00
2022-11-08T21:32:09.473Z,100.00
2022-11-08T21:34:37.016Z,100.00
2022-11-08T21:37:04.597Z,100.00
2022-11-08T21:39:32.145Z,100.00
2022-11-08T21:41:59.681Z,100.00
2022-11-08T21:44:27.236Z,100.00
2022-11-08T21:46:54.798Z,100.00
2022-11-08T21:49:23.813Z,100.00
2022-11-08T21:51:51.388Z,100.00
2022-11-08T21:54:18.936Z,100.00
2022-11-08T21:56:46.504Z,100.00
2022-11-08T21:59:14.265Z,100.00
2022-11-08T22:01:42.336Z,100.00
2022-11-08T22:04:09.885Z,100.00
2022-11-08T22:06:41.432Z,100.00
2022-11-08T22:09:11.219Z,100.00
2022-11-08T22:11:38.765Z,100.00
2022-11-08T22:14:06.529Z,100.00
2022-11-08T22:16:34.134Z,100.00
2022-11-08T22:19:05.884Z,100.00
2022-11-08T22:21:41.072Z,100.00
2022-11-08T22:24:12.121Z,100.00
2022-11-08T22:26:41.019Z,100.00
2022-11-08T22:29:08.971Z,100.00
2022-11-08T22:31:36.803Z,100.00
2022-11-08T22:34:05.206Z,100.00
2022-11-08T22:36:33.116Z,100.00
2022-11-08T22:39:02.125Z,100.00
2022-11-08T22:41:31.144Z,100.00
2022-11-08T22:43:58.794Z,100.00
2022-11-08T22:46:26.351Z,100.00
2022-11-08T22:48:53.990Z,100.00
2022-11-08T22:51:21.553Z,100.00
2022-11-08T22:53:49.125Z,100.00
2022-11-08T22:56:16.661Z,100.00
2022-11-08T22:58:45.573Z,100.00
2022-11-08T23:01:15.272Z,100.00
2022-11-08T23:03:45.672Z,100.00
2022-11-08T23:06:13.426Z,100.00
2022-11-08T23:08:41.180Z,100.00
2022-11-08T23:11:27.008Z,100.00
2022-11-08T23:14:13.579Z,100.00
2022-11-08T23:16:44.740Z,100.00
2022-11-08T23:19:32.163Z,100.00
2022-11-08T23:22:18.443Z,100.00
2022-11-08T23:24:46.038Z,100.00
2022-11-08T23:27:32.509Z,100.00
2022-11-08T23:30:18.988Z,100.00
2022-11-08T23:32:49.404Z,100.00
2022-11-08T23:35:18.409Z,100.00
2022-11-08T23:37:45.985Z,100.00
2022-11-08T23:40:33.025Z,100.00
2022-11-08T23:43:25.397Z,100.00
2022-11-08T23:45:54.410Z,100.00
2022-11-08T23:48:22.127Z,100.00
2022-11-08T23:50:51.073Z,100.00
2022-11-08T23:53:19.603Z,100.00
2022-11-08T23:55:47.624Z,100.00
2022-11-08T23:58:15.792Z,100.00
